Logan - 24 Hour Table
Date & TimeSolar
Radiation
(W/m²)
Wind
Speed
(mph)
Wind
Direction
(degrees)
Air
Temperature
(°F)
Relative
Humidity
(%)
Precipitation
(inches)
Barometric
Pressure
(inHg)
2017/03/24 20:00 0 4.8 101 50.6 59 0.00 30.02
2017/03/24 19:00 8 3.0 114 51.9 47 0.00 30.04
2017/03/24 18:00 67 5.3 205 52.1 45 0.00 30.06
2017/03/24 17:00 217 9.4 201 53.7 46 0.00 30.06
2017/03/24 16:00 545 8.7 195 54.8 45 0.00 30.08
2017/03/24 15:00 671 11.3 198 54.3 45 0.01 30.09
2017/03/24 14:00 799 11.8 191 53.8 48 0.00 30.12
2017/03/24 13:00 829 8.7 177 52.7 44 0.00 30.14
2017/03/24 12:00 793 4.1 279 50.2 46 0.00 30.17
2017/03/24 11:00 698 2.9 323 46.9 61 0.00 30.18
2017/03/24 10:00 556 3.4 346 42.1 70 0.00 30.18
2017/03/24 09:00 370 2.8 339 37.9 78 0.00 30.18
2017/03/24 08:00 190 3.4 29 34.7 84 0.00 30.18
2017/03/24 07:00 9 2.4 68 30.2 95 0.00 30.18
2017/03/24 06:00 0 1.1 49 30.5 95 0.00 30.15
2017/03/24 05:00 0 1.6 40 31.2 96 0.00 30.15
2017/03/24 04:00 0 3.2 196 31.8 93 0.00 30.15
2017/03/24 03:00 0 2.9 189 32.5 96 0.00 30.13
2017/03/24 02:00 0 2.0 136 34.5 95 0.00 30.13
2017/03/24 01:00 0 2.9 161 35.6 90 0.00 30.12
2017/03/24 00:00 0 2.0 50 37.3 93 0.00 30.09
2017/03/23 23:00 0 1.6 66 38.8 94 0.00 30.07
2017/03/23 22:00 0 0.9 217 39.5 90 0.00 30.05
2017/03/23 21:00 0 3.5 206 39.3 88 0.00 30.02